Blanchard Township, Maine
Current Conditions -  °F | °C
As of 7:53 AM on Wednesday 26 Nov 2014 (Local Time) from KMLT Reporting Station
Few Clouds Few Clouds  
Wind Chill:   Ceiling: Unl
Heat Index:   Visibility: 10mi
Dew Point: -5°   Wind: 6mph
Humidity: 57%   Direction: 270°W
Pressure: 30.19"   Gusts: NA
Location:  45.3122°N, 69.5439°W
Report Text: KMLT 261253Z AUTO 27005KT 10SM FEW041 03/M05 A3019 RMK AO2 SLP231 T00281050
Loading
Personal Weather Stations






























Interactive Weather Map New forecast layout! Learn more

10-Day Weather Forecast

Advertisements
Track Severe Weather on mobile